FALA

Lanseria Airport

Johannesburg, South Africa
TAF FALA 251600Z 2518/2618 VRB03KT CAVOK BECMG 2607/2609 32006KT BECMG 2616/2618 VRB03KT TX26/2612Z TN10/2604Z
Issued Valid From Valid To
Apr-25 @ 16:00 UTC
(2 hours ago)
Apr-25 @ 18:00 UTC
(18 minutes ago)
Apr-26 @ 18:00 UTC
(in 24 hours)
Apr-25 @ 18:00 to Apr-26 @ 07:00
TAF FALA 251600Z 2518/2618 VRB03KT CAVOK
Wind Visibility Clouds Conditions
Variable at 3 knots 10,000+ meters
  • No significant clouds
Becoming Apr-26 @ 07:00 to Apr-26 @ 16:00
BECMG 2607/2609 32006KT
Wind Visibility Clouds Conditions
320° at 6 knots 10,000+ meters
  • No significant clouds
Becoming Apr-26 @ 16:00 to Apr-26 @ 18:00
BECMG 2616/2618 VRB03KT TX26/2612Z TN10/2604Z
Wind Visibility Clouds Conditions
Variable at 3 knots 10,000+ meters
  • No significant clouds
TAF FALA 251600Z 2518/2618 VRB03KT CAVOK BECMG 2607/2609 32006KT BECMG 2616/2618 VRB03KT TX26/2612Z TN10/2604Z
Issued Apr-25 @ 16:00 UTC
(2 hours ago)
Valid From Apr-25 @ 18:00 UTC
(18 minutes ago)
Valid To Apr-26 @ 18:00 UTC
(in 24 hours)
Apr-25 @ 18:00 - Apr-26 @ 07:00
Wind Visibility
Variable at 3 knots 10,000+ meters
Clouds
  • No significant clouds
Conditions
Becoming Apr-26 @ 07:00 - Apr-26 @ 16:00
Wind Visibility
320° at 6 knots 10,000+ meters
Clouds
  • No significant clouds
Conditions
Becoming Apr-26 @ 16:00 - Apr-26 @ 18:00
Wind Visibility
Variable at 3 knots 10,000+ meters
Clouds
  • No significant clouds
Conditions